sensor_id;sensor_type;location;lat;lon;timestamp;pressure;altitude;pressure_sealevel;temperature;humidity
76285;BME280;71676;50.998;7.098;2023-12-14T00:01:38;100022.69;;;7.79;67.75
76285;BME280;71676;50.998;7.098;2023-12-14T00:04:08;100020.13;;;7.76;67.86
76285;BME280;71676;50.998;7.098;2023-12-14T00:06:34;100026.97;;;7.80;67.69
76285;BME280;71676;50.998;7.098;2023-12-14T00:09:01;100038.13;;;7.84;67.80
76285;BME280;71676;50.998;7.098;2023-12-14T00:11:27;100036.41;;;7.81;67.90
76285;BME280;71676;50.998;7.098;2023-12-14T00:13:54;100043.25;;;7.81;68.06
76285;BME280;71676;50.998;7.098;2023-12-14T00:16:21;100044.94;;;7.80;67.81
76285;BME280;71676;50.998;7.098;2023-12-14T00:18:47;100050.06;;;7.78;67.96
76285;BME280;71676;50.998;7.098;2023-12-14T00:21:15;100032.88;;;7.68;68.11
76285;BME280;71676;50.998;7.098;2023-12-14T00:23:42;100051.78;;;7.78;67.94
76285;BME280;71676;50.998;7.098;2023-12-14T00:26:09;100066.31;;;7.76;67.77
76285;BME280;71676;50.998;7.098;2023-12-14T00:28:35;100064.53;;;7.72;68.16
76285;BME280;71676;50.998;7.098;2023-12-14T00:31:02;100066.28;;;7.73;68.34
76285;BME280;71676;50.998;7.098;2023-12-14T00:33:29;100054.22;;;7.66;68.33
76285;BME280;71676;50.998;7.098;2023-12-14T00:35:55;100070.53;;;7.72;68.19
76285;BME280;71676;50.998;7.098;2023-12-14T00:38:23;100078.22;;;7.72;68.30
76285;BME280;71676;50.998;7.098;2023-12-14T00:40:50;100073.13;;;7.74;68.18
76285;BME280;71676;50.998;7.098;2023-12-14T00:43:16;100074.00;;;7.73;68.15
76285;BME280;71676;50.998;7.098;2023-12-14T00:45:43;100079.91;;;7.72;68.29
76285;BME280;71676;50.998;7.098;2023-12-14T00:48:11;100086.78;;;7.71;68.26
76285;BME280;71676;50.998;7.098;2023-12-14T00:50:37;100094.53;;;7.74;68.23
76285;BME280;71676;50.998;7.098;2023-12-14T00:53:04;100103.94;;;7.74;68.36
76285;BME280;71676;50.998;7.098;2023-12-14T00:55:32;100105.56;;;7.69;68.62
76285;BME280;71676;50.998;7.098;2023-12-14T00:57:58;100111.53;;;7.66;68.27
76285;BME280;71676;50.998;7.098;2023-12-14T01:00:25;100117.53;;;7.67;68.29
76285;BME280;71676;50.998;7.098;2023-12-14T01:02:52;100123.47;;;7.64;68.59
76285;BME280;71676;50.998;7.098;2023-12-14T01:05:18;100118.28;;;7.57;68.88
76285;BME280;71676;50.998;7.098;2023-12-14T01:07:45;100133.69;;;7.55;68.92
76285;BME280;71676;50.998;7.098;2023-12-14T01:10:11;100143.06;;;7.55;68.94
76285;BME280;71676;50.998;7.098;2023-12-14T01:12:39;100142.19;;;7.54;69.03
76285;BME280;71676;50.998;7.098;2023-12-14T01:15:07;100139.63;;;7.54;69.11
76285;BME280;71676;50.998;7.098;2023-12-14T01:17:33;100150.75;;;7.53;69.28
76285;BME280;71676;50.998;7.098;2023-12-14T01:20:03;100150.75;;;7.53;69.59
76285;BME280;71676;50.998;7.098;2023-12-14T01:22:31;100155.84;;;7.50;69.40
76285;BME280;71676;50.998;7.098;2023-12-14T01:24:57;100166.13;;;7.52;69.30
76285;BME280;71676;50.998;7.098;2023-12-14T01:27:24;100162.72;;;7.54;69.48
76285;BME280;71676;50.998;7.098;2023-12-14T01:29:52;100169.59;;;7.54;69.33
76285;BME280;71676;50.998;7.098;2023-12-14T01:32:19;100174.72;;;7.55;69.40
76285;BME280;71676;50.998;7.098;2023-12-14T01:34:45;100177.28;;;7.54;68.99
76285;BME280;71676;50.998;7.098;2023-12-14T01:37:12;100185.78;;;7.51;69.46
76285;BME280;71676;50.998;7.098;2023-12-14T01:39:38;100180.66;;;7.50;69.45
76285;BME280;71676;50.998;7.098;2023-12-14T01:42:05;100186.63;;;7.49;69.80
76285;BME280;71676;50.998;7.098;2023-12-14T01:44:32;100193.44;;;7.47;69.84
76285;BME280;71676;50.998;7.098;2023-12-14T01:47:00;100193.41;;;7.42;70.03
76285;BME280;71676;50.998;7.098;2023-12-14T01:49:26;100193.44;;;7.47;69.52
76285;BME280;71676;50.998;7.098;2023-12-14T01:51:53;100184.81;;;7.40;69.64
76285;BME280;71676;50.998;7.098;2023-12-14T01:54:20;100188.22;;;7.38;70.04
76285;BME280;71676;50.998;7.098;2023-12-14T01:56:46;100202.78;;;7.40;70.06
76285;BME280;71676;50.998;7.098;2023-12-14T01:59:13;100216.47;;;7.42;69.97
76285;BME280;71676;50.998;7.098;2023-12-14T02:01:42;100225.09;;;7.46;69.80
76285;BME280;71676;50.998;7.098;2023-12-14T02:04:11;100230.94;;;7.34;71.70
76285;BME280;71676;50.998;7.098;2023-12-14T02:06:38;100230.00;;;7.28;70.70
76285;BME280;71676;50.998;7.098;2023-12-14T02:09:05;100240.28;;;7.31;70.54
76285;BME280;71676;50.998;7.098;2023-12-14T02:11:32;100233.44;;;7.30;70.63
76285;BME280;71676;50.998;7.098;2023-12-14T02:14:03;100243.72;;;7.31;71.64
76285;BME280;71676;50.998;7.098;2023-12-14T02:16:30;100249.69;;;7.30;70.72
76285;BME280;71676;50.998;7.098;2023-12-14T02:18:57;100262.47;;;7.27;71.09
76285;BME280;71676;50.998;7.098;2023-12-14T02:21:25;100259.03;;;7.25;71.25
76285;BME280;71676;50.998;7.098;2023-12-14T02:23:53;100269.34;;;7.28;70.83
76285;BME280;71676;50.998;7.098;2023-12-14T02:26:19;100265.97;;;7.34;70.80
76285;BME280;71676;50.998;7.098;2023-12-14T02:28:46;100269.38;;;7.33;71.04
76285;BME280;71676;50.998;7.098;2023-12-14T02:31:12;100271.94;;;7.33;70.76
76285;BME280;71676;50.998;7.098;2023-12-14T02:33:39;100281.34;;;7.34;70.57
76285;BME280;71676;50.998;7.098;2023-12-14T02:36:06;100283.06;;;7.33;70.55
76285;BME280;71676;50.998;7.098;2023-12-14T02:38:33;100292.44;;;7.31;71.04
76285;BME280;71676;50.998;7.098;2023-12-14T02:41:02;100295.03;;;7.33;70.98
76285;BME280;71676;50.998;7.098;2023-12-14T02:43:28;100295.81;;;7.29;70.85
76285;BME280;71676;50.998;7.098;2023-12-14T02:45:55;100300.16;;;7.33;71.03
76285;BME280;71676;50.998;7.098;2023-12-14T02:48:27;100305.25;;;7.30;70.85
76285;BME280;71676;50.998;7.098;2023-12-14T02:50:53;100303.63;;;7.35;70.58
76285;BME280;71676;50.998;7.098;2023-12-14T02:53:20;100315.50;;;7.30;70.93
76285;BME280;71676;50.998;7.098;2023-12-14T02:55:47;100316.25;;;7.23;71.57
76285;BME280;71676;50.998;7.098;2023-12-14T02:58:15;100316.28;;;7.26;71.03
76285;BME280;71676;50.998;7.098;2023-12-14T03:00:41;100322.31;;;7.28;71.10
76285;BME280;71676;50.998;7.098;2023-12-14T03:03:08;100329.97;;;7.25;71.45
76285;BME280;71676;50.998;7.098;2023-12-14T03:05:54;100329.94;;;7.22;72.14
76285;BME280;71676;50.998;7.098;2023-12-14T03:09:03;100334.22;;;7.23;72.02
76285;BME280;71676;50.998;7.098;2023-12-14T03:11:39;100343.63;;;7.22;71.78
76285;BME280;71676;50.998;7.098;2023-12-14T03:14:34;100344.31;;;7.12;71.80
76285;BME280;71676;50.998;7.098;2023-12-14T03:17:27;100343.53;;;7.18;71.63
76285;BME280;71676;50.998;7.098;2023-12-14T03:20:13;100345.28;;;7.19;71.24
76285;BME280;71676;50.998;7.098;2023-12-14T03:22:53;100356.25;;;7.10;71.63
76285;BME280;71676;50.998;7.098;2023-12-14T03:29:09;100361.44;;;7.15;71.91
76285;BME280;71676;50.998;7.098;2023-12-14T03:32:10;100331.19;;;6.91;71.96
76285;BME280;71676;50.998;7.098;2023-12-14T03:38:21;100375.69;;;6.95;72.17
76285;BME280;71676;50.998;7.098;2023-12-14T03:44:41;100392.81;;;6.99;71.46
76285;BME280;71676;50.998;7.098;2023-12-14T03:47:55;100404.78;;;6.97;71.46
76285;BME280;71676;50.998;7.098;2023-12-14T03:57:27;100410.44;;;6.79;71.72
76285;BME280;71676;50.998;7.098;2023-12-14T04:00:22;100413.97;;;6.86;71.87
76285;BME280;71676;50.998;7.098;2023-12-14T04:03:27;100421.63;;;6.84;71.03
76285;BME280;71676;50.998;7.098;2023-12-14T04:13:06;100449.63;;;6.74;71.68
76285;BME280;71676;50.998;7.098;2023-12-14T04:19:16;100459.75;;;6.65;71.58
76285;BME280;71676;50.998;7.098;2023-12-14T04:22:00;100462.22;;;6.62;71.54
76285;BME280;71676;50.998;7.098;2023-12-14T04:24:42;100465.09;;;6.78;71.41
76285;BME280;71676;50.998;7.098;2023-12-14T04:55:00;100511.06;;;6.69;70.82
76285;BME280;71676;50.998;7.098;2023-12-14T04:57:32;100521.22;;;6.65;70.63
76285;BME280;71676;50.998;7.098;2023-12-14T05:00:12;100522.81;;;6.58;70.68
76285;BME280;71676;50.998;7.098;2023-12-14T05:16:32;100561.44;;;6.69;70.79
76285;BME280;71676;50.998;7.098;2023-12-14T05:21:53;100574.28;;;6.70;70.59
76285;BME280;71676;50.998;7.098;2023-12-14T05:38:40;100587.53;;;6.51;70.43
76285;BME280;71676;50.998;7.098;2023-12-14T05:51:47;100607.34;;;6.58;70.43
76285;BME280;71676;50.998;7.098;2023-12-14T05:57:26;100622.72;;;6.58;69.94
76285;BME280;71676;50.998;7.098;2023-12-14T06:00:08;100623.56;;;6.59;69.94
76285;BME280;71676;50.998;7.098;2023-12-14T06:02:42;100627.09;;;6.64;69.76
76285;BME280;71676;50.998;7.098;2023-12-14T06:11:38;100649.69;;;6.43;69.99
76285;BME280;71676;50.998;7.098;2023-12-14T06:14:13;100659.13;;;6.44;69.92
76285;BME280;71676;50.998;7.098;2023-12-14T06:16:50;100656.47;;;6.39;69.46
76285;BME280;71676;50.998;7.098;2023-12-14T06:19:21;100664.97;;;6.40;70.18
76285;BME280;71676;50.998;7.098;2023-12-14T06:21:59;100670.91;;;6.37;70.14
76285;BME280;71676;50.998;7.098;2023-12-14T06:24:39;100671.81;;;6.39;70.20
76285;BME280;71676;50.998;7.098;2023-12-14T06:30:09;100682.25;;;6.48;69.98
76285;BME280;71676;50.998;7.098;2023-12-14T06:32:42;100691.75;;;6.54;69.93
76285;BME280;71676;50.998;7.098;2023-12-14T06:35:11;100697.81;;;6.57;69.75
76285;BME280;71676;50.998;7.098;2023-12-14T06:37:42;100704.50;;;6.51;69.35
76285;BME280;71676;50.998;7.098;2023-12-14T06:40:15;100710.56;;;6.54;69.68
76285;BME280;71676;50.998;7.098;2023-12-14T06:42:56;100714.06;;;6.58;68.94
76285;BME280;71676;50.998;7.098;2023-12-14T06:45:29;100718.25;;;6.54;68.86
76285;BME280;71676;50.998;7.098;2023-12-14T06:47:57;100727.50;;;6.48;69.43
76285;BME280;71676;50.998;7.098;2023-12-14T06:50:24;100741.19;;;6.48;69.39
76285;BME280;71676;50.998;7.098;2023-12-14T06:53:06;100746.13;;;6.41;69.27
76285;BME280;71676;50.998;7.098;2023-12-14T06:56:08;100748.63;;;6.38;69.65
76285;BME280;71676;50.998;7.098;2023-12-14T06:58:47;100759.72;;;6.38;69.65
76285;BME280;71676;50.998;7.098;2023-12-14T07:01:21;100767.34;;;6.37;69.69
76285;BME280;71676;50.998;7.098;2023-12-14T07:04:01;100778.38;;;6.33;69.81
76285;BME280;71676;50.998;7.098;2023-12-14T07:06:30;100780.13;;;6.35;69.84
76285;BME280;71676;50.998;7.098;2023-12-14T07:09:04;100779.34;;;6.38;69.52
76285;BME280;71676;50.998;7.098;2023-12-14T07:11:48;100790.41;;;6.37;69.32
76285;BME280;71676;50.998;7.098;2023-12-14T07:18:23;100804.56;;;6.22;69.94
76285;BME280;71676;50.998;7.098;2023-12-14T07:21:03;100804.25;;;6.12;70.02
76285;BME280;71676;50.998;7.098;2023-12-14T07:23:50;100815.28;;;6.09;70.07
76285;BME280;71676;50.998;7.098;2023-12-14T07:26:38;100815.25;;;6.08;70.26
76285;BME280;71676;50.998;7.098;2023-12-14T07:29:10;100817.16;;;6.15;70.32
76285;BME280;71676;50.998;7.098;2023-12-14T07:35:33;100831.75;;;6.17;69.72
76285;BME280;71676;50.998;7.098;2023-12-14T07:38:35;100834.94;;;6.10;70.23
76285;BME280;71676;50.998;7.098;2023-12-14T07:41:18;100845.94;;;6.06;70.33
76285;BME280;71676;50.998;7.098;2023-12-14T07:43:59;100839.25;;;6.11;70.25
76285;BME280;71676;50.998;7.098;2023-12-14T07:46:28;100838.38;;;6.11;70.22
76285;BME280;71676;50.998;7.098;2023-12-14T07:49:11;100846.97;;;6.13;70.35
76285;BME280;71676;50.998;7.098;2023-12-14T07:51:58;100856.44;;;6.17;70.28
76285;BME280;71676;50.998;7.098;2023-12-14T07:54:32;100853.69;;;6.09;70.16
76285;BME280;71676;50.998;7.098;2023-12-14T07:57:11;100861.28;;;6.06;69.77
76285;BME280;71676;50.998;7.098;2023-12-14T07:59:55;100875.72;;;6.04;70.36
76285;BME280;71676;50.998;7.098;2023-12-14T08:02:35;100879.84;;;5.99;70.13
76285;BME280;71676;50.998;7.098;2023-12-14T08:05:08;100890.81;;;5.94;70.60
76285;BME280;71676;50.998;7.098;2023-12-14T08:07:46;100892.69;;;6.01;70.27
76285;BME280;71676;50.998;7.098;2023-12-14T08:10:19;100897.72;;;5.98;70.42
76285;BME280;71676;50.998;7.098;2023-12-14T08:13:07;100905.53;;;6.02;70.44
76285;BME280;71676;50.998;7.098;2023-12-14T08:16:07;100910.50;;;5.96;70.37
76285;BME280;71676;50.998;7.098;2023-12-14T08:18:55;100925.94;;;5.99;70.52
76285;BME280;71676;50.998;7.098;2023-12-14T08:21:36;100935.91;;;5.90;71.19
76285;BME280;71676;50.998;7.098;2023-12-14T08:27:33;100932.53;;;5.91;71.05
76285;BME280;71676;50.998;7.098;2023-12-14T08:30:09;100941.16;;;5.95;70.82
76285;BME280;71676;50.998;7.098;2023-12-14T08:33:13;100944.00;;;6.04;70.48
76285;BME280;71676;50.998;7.098;2023-12-14T08:36:05;100952.41;;;6.00;70.17
76285;BME280;71676;50.998;7.098;2023-12-14T08:38:41;100959.16;;;5.98;70.37
76285;BME280;71676;50.998;7.098;2023-12-14T08:41:14;100923.53;;;5.76;70.22
76285;BME280;71676;50.998;7.098;2023-12-14T08:43:53;100966.06;;;6.00;70.23
76285;BME280;71676;50.998;7.098;2023-12-14T08:46:20;100962.63;;;6.00;69.75
76285;BME280;71676;50.998;7.098;2023-12-14T08:48:48;100961.91;;;6.04;70.02
76285;BME280;71676;50.998;7.098;2023-12-14T08:51:15;100971.31;;;6.05;69.57
76285;BME280;71676;50.998;7.098;2023-12-14T08:53:42;100979.03;;;6.06;69.92
76285;BME280;71676;50.998;7.098;2023-12-14T08:56:09;100991.72;;;6.02;69.92
76285;BME280;71676;50.998;7.098;2023-12-14T08:58:36;100990.88;;;6.03;70.02
76285;BME280;71676;50.998;7.098;2023-12-14T09:01:04;100979.16;;;5.81;70.08
76285;BME280;71676;50.998;7.098;2023-12-14T09:03:31;101005.19;;;5.96;70.31
76285;BME280;71676;50.998;7.098;2023-12-14T09:05:58;101002.59;;;5.95;70.30
76285;BME280;71676;50.998;7.098;2023-12-14T09:08:27;101014.66;;;5.99;69.96
76285;BME280;71676;50.998;7.098;2023-12-14T09:10:54;101019.78;;;5.99;70.09
76285;BME280;71676;50.998;7.098;2023-12-14T09:13:20;101029.50;;;5.82;69.96
76285;BME280;71676;50.998;7.098;2023-12-14T09:15:47;101034.50;;;5.78;70.27
76285;BME280;71676;50.998;7.098;2023-12-14T09:18:19;101041.50;;;5.57;70.92
76285;BME280;71676;50.998;7.098;2023-12-14T09:20:45;101049.25;;;5.60;70.98
76285;BME280;71676;50.998;7.098;2023-12-14T09:23:12;101042.84;;;5.72;71.00
76285;BME280;71676;50.998;7.098;2023-12-14T09:25:39;101046.28;;;5.73;70.90
76285;BME280;71676;50.998;7.098;2023-12-14T09:28:05;101047.63;;;5.62;70.79
76285;BME280;71676;50.998;7.098;2023-12-14T09:30:32;101059.03;;;5.71;70.82
76285;BME280;71676;50.998;7.098;2023-12-14T09:32:59;101059.63;;;5.64;70.81
76285;BME280;71676;50.998;7.098;2023-12-14T09:35:27;101074.28;;;5.68;71.25
76285;BME280;71676;50.998;7.098;2023-12-14T09:37:53;101063.03;;;5.63;71.12
76285;BME280;71676;50.998;7.098;2023-12-14T09:40:21;101079.72;;;5.79;70.70
76285;BME280;71676;50.998;7.098;2023-12-14T09:42:49;101082.41;;;5.83;70.60
76285;BME280;71676;50.998;7.098;2023-12-14T09:45:16;101078.25;;;5.87;70.31
76285;BME280;71676;50.998;7.098;2023-12-14T09:47:44;101077.13;;;5.77;70.66
76285;BME280;71676;50.998;7.098;2023-12-14T09:50:11;101084.78;;;5.77;70.86
76285;BME280;71676;50.998;7.098;2023-12-14T09:52:40;101088.09;;;5.73;70.79
76285;BME280;71676;50.998;7.098;2023-12-14T09:55:10;101089.63;;;5.68;70.88
76285;BME280;71676;50.998;7.098;2023-12-14T09:57:37;101093.72;;;5.63;70.82
76285;BME280;71676;50.998;7.098;2023-12-14T10:00:04;101101.34;;;5.62;70.62
76285;BME280;71676;50.998;7.098;2023-12-14T10:02:35;101098.22;;;5.45;70.95
76285;BME280;71676;50.998;7.098;2023-12-14T10:05:03;101112.28;;;5.58;70.79
76285;BME280;71676;50.998;7.098;2023-12-14T10:07:42;101101.31;;;5.60;70.80
76285;BME280;71676;50.998;7.098;2023-12-14T10:10:10;101115.34;;;5.73;70.64
76285;BME280;71676;50.998;7.098;2023-12-14T10:12:50;101102.75;;;5.52;70.81
76285;BME280;71676;50.998;7.098;2023-12-14T10:15:17;101125.06;;;5.58;70.62
76285;BME280;71676;50.998;7.098;2023-12-14T10:17:43;101121.63;;;5.56;70.59
76285;BME280;71676;50.998;7.098;2023-12-14T10:20:19;101132.06;;;5.62;71.00
76285;BME280;71676;50.998;7.098;2023-12-14T10:22:48;101130.00;;;5.52;70.84
76285;BME280;71676;50.998;7.098;2023-12-14T10:25:16;101132.16;;;5.65;70.51
76285;BME280;71676;50.998;7.098;2023-12-14T10:27:46;101126.38;;;5.70;70.72
76285;BME280;71676;50.998;7.098;2023-12-14T10:30:14;101137.31;;;5.66;70.52
76285;BME280;71676;50.998;7.098;2023-12-14T10:32:41;101134.84;;;5.69;70.32
76285;BME280;71676;50.998;7.098;2023-12-14T10:35:08;101147.00;;;5.75;70.45
76285;BME280;71676;50.998;7.098;2023-12-14T10:37:37;101159.34;;;5.63;69.84
76285;BME280;71676;50.998;7.098;2023-12-14T10:40:09;101162.00;;;5.66;70.47
76285;BME280;71676;50.998;7.098;2023-12-14T10:42:36;101141.81;;;5.48;69.41
76285;BME280;71676;50.998;7.098;2023-12-14T10:45:06;101175.50;;;5.60;70.37
76285;BME280;71676;50.998;7.098;2023-12-14T10:47:34;101169.63;;;5.64;70.52
76285;BME280;71676;50.998;7.098;2023-12-14T10:50:01;101158.94;;;5.26;69.87
76285;BME280;71676;50.998;7.098;2023-12-14T10:52:29;101187.06;;;5.49;70.71
76285;BME280;71676;50.998;7.098;2023-12-14T10:55:04;101193.25;;;5.56;70.83
76285;BME280;71676;50.998;7.098;2023-12-14T10:57:33;101185.19;;;5.45;70.75
76285;BME280;71676;50.998;7.098;2023-12-14T11:00:02;101193.19;;;5.54;70.54
76285;BME280;71676;50.998;7.098;2023-12-14T11:02:30;101188.78;;;5.50;70.84
76285;BME280;71676;50.998;7.098;2023-12-14T11:05:05;101200.25;;;5.61;69.97
76285;BME280;71676;50.998;7.098;2023-12-14T11:07:45;101174.22;;;5.48;69.83
76285;BME280;71676;50.998;7.098;2023-12-14T11:10:12;101207.41;;;5.71;70.01
76285;BME280;71676;50.998;7.098;2023-12-14T11:12:50;101208.13;;;5.67;69.85
76285;BME280;71676;50.998;7.098;2023-12-14T11:15:17;101200.34;;;5.64;70.10
76285;BME280;71676;50.998;7.098;2023-12-14T11:18:25;101197.09;;;5.68;69.95
76285;BME280;71676;50.998;7.098;2023-12-14T11:20:54;101206.50;;;5.69;69.84
76285;BME280;71676;50.998;7.098;2023-12-14T11:23:31;101212.59;;;5.73;69.67
76285;BME280;71676;50.998;7.098;2023-12-14T11:26:00;101222.91;;;5.76;69.77
76285;BME280;71676;50.998;7.098;2023-12-14T11:28:30;101227.84;;;5.70;70.05
76285;BME280;71676;50.998;7.098;2023-12-14T11:30:57;101229.63;;;5.72;69.34
76285;BME280;71676;50.998;7.098;2023-12-14T11:33:23;101223.16;;;5.58;69.64
76285;BME280;71676;50.998;7.098;2023-12-14T11:35:52;101207.06;;;5.37;70.23
76285;BME280;71676;50.998;7.098;2023-12-14T11:38:19;101222.53;;;5.40;70.09
76285;BME280;71676;50.998;7.098;2023-12-14T11:40:47;101223.34;;;5.39;69.91
76285;BME280;71676;50.998;7.098;2023-12-14T11:43:14;101245.06;;;5.50;70.03
76285;BME280;71676;50.998;7.098;2023-12-14T11:45:42;101248.09;;;5.40;70.42
76285;BME280;71676;50.998;7.098;2023-12-14T11:48:10;101260.03;;;5.40;70.54
76285;BME280;71676;50.998;7.098;2023-12-14T11:50:38;101252.66;;;5.49;70.25
76285;BME280;71676;50.998;7.098;2023-12-14T11:53:05;101252.13;;;5.57;69.90
76285;BME280;71676;50.998;7.098;2023-12-14T11:55:35;101255.59;;;5.59;69.98
76285;BME280;71676;50.998;7.098;2023-12-14T11:58:03;101262.56;;;5.63;69.64
76285;BME280;71676;50.998;7.098;2023-12-14T12:00:31;101250.38;;;5.56;69.77
76285;BME280;71676;50.998;7.098;2023-12-14T12:03:10;101257.94;;;5.53;68.91
76285;BME280;71676;50.998;7.098;2023-12-14T12:05:38;101273.34;;;5.55;69.77
76285;BME280;71676;50.998;7.098;2023-12-14T12:08:05;101266.66;;;5.58;69.84
76285;BME280;71676;50.998;7.098;2023-12-14T12:10:32;101264.34;;;5.66;69.51
76285;BME280;71676;50.998;7.098;2023-12-14T12:13:00;101275.25;;;5.60;69.60
76285;BME280;71676;50.998;7.098;2023-12-14T12:15:26;101267.84;;;5.68;68.99
76285;BME280;71676;50.998;7.098;2023-12-14T12:17:53;101280.28;;;5.57;69.14
76285;BME280;71676;50.998;7.098;2023-12-14T12:20:21;101281.16;;;5.59;69.49
76285;BME280;71676;50.998;7.098;2023-12-14T12:22:48;101277.66;;;5.56;69.63
76285;BME280;71676;50.998;7.098;2023-12-14T12:25:14;101275.22;;;5.59;69.83
76285;BME280;71676;50.998;7.098;2023-12-14T12:27:41;101274.13;;;5.52;69.67
76285;BME280;71676;50.998;7.098;2023-12-14T12:30:10;101276.53;;;5.48;69.90
76285;BME280;71676;50.998;7.098;2023-12-14T12:32:37;101270.53;;;5.47;69.63
76285;BME280;71676;50.998;7.098;2023-12-14T12:35:04;101265.19;;;5.41;69.67
76285;BME280;71676;50.998;7.098;2023-12-14T12:37:32;101271.41;;;5.48;70.02
76285;BME280;71676;50.998;7.098;2023-12-14T12:39:59;101276.56;;;5.49;70.03
76285;BME280;71676;50.998;7.098;2023-12-14T12:42:25;101274.22;;;5.55;69.32
76285;BME280;71676;50.998;7.098;2023-12-14T12:44:52;101282.63;;;5.53;69.76
76285;BME280;71676;50.998;7.098;2023-12-14T12:47:19;101285.09;;;5.50;69.58
76285;BME280;71676;50.998;7.098;2023-12-14T12:49:45;101281.69;;;5.49;69.84
76285;BME280;71676;50.998;7.098;2023-12-14T12:52:12;101270.53;;;5.47;69.73
76285;BME280;71676;50.998;7.098;2023-12-14T12:54:40;101285.28;;;5.54;69.46
76285;BME280;71676;50.998;7.098;2023-12-14T12:57:07;101275.78;;;5.52;69.48
76285;BME280;71676;50.998;7.098;2023-12-14T12:59:33;101287.91;;;5.56;69.57
76285;BME280;71676;50.998;7.098;2023-12-14T13:02:00;101292.38;;;5.63;69.47
76285;BME280;71676;50.998;7.098;2023-12-14T13:04:28;101302.63;;;5.63;68.68
76285;BME280;71676;50.998;7.098;2023-12-14T13:06:55;101306.66;;;5.56;69.30
76285;BME280;71676;50.998;7.098;2023-12-14T13:09:23;101318.75;;;5.60;69.03
76285;BME280;71676;50.998;7.098;2023-12-14T13:11:51;101326.47;;;5.62;68.15
76285;BME280;71676;50.998;7.098;2023-12-14T13:14:17;101319.69;;;5.62;68.67
76285;BME280;71676;50.998;7.098;2023-12-14T13:16:44;101322.34;;;5.65;68.37
76285;BME280;71676;50.998;7.098;2023-12-14T13:19:11;101334.88;;;5.59;68.62
76285;BME280;71676;50.998;7.098;2023-12-14T13:21:38;101331.44;;;5.57;68.67
76285;BME280;71676;50.998;7.098;2023-12-14T13:24:05;101335.78;;;5.60;68.41
76285;BME280;71676;50.998;7.098;2023-12-14T13:26:31;101316.63;;;5.49;68.46
76285;BME280;71676;50.998;7.098;2023-12-14T13:29:00;101349.59;;;5.65;68.44
76285;BME280;71676;50.998;7.098;2023-12-14T13:31:26;101352.16;;;5.65;68.52
76285;BME280;71676;50.998;7.098;2023-12-14T13:33:53;101350.50;;;5.65;68.34
76285;BME280;71676;50.998;7.098;2023-12-14T13:36:20;101353.91;;;5.66;68.41
76285;BME280;71676;50.998;7.098;2023-12-14T13:38:46;101352.00;;;5.60;68.38
76285;BME280;71676;50.998;7.098;2023-12-14T13:41:13;101351.03;;;5.57;69.06
76285;BME280;71676;50.998;7.098;2023-12-14T13:43:40;101368.19;;;5.61;68.51
76285;BME280;71676;50.998;7.098;2023-12-14T13:46:08;101374.66;;;5.51;68.96
76285;BME280;71676;50.998;7.098;2023-12-14T13:48:35;101376.22;;;5.46;69.49
76285;BME280;71676;50.998;7.098;2023-12-14T13:51:02;101382.22;;;5.48;69.35
76285;BME280;71676;50.998;7.098;2023-12-14T13:53:28;101391.56;;;5.46;69.32
76285;BME280;71676;50.998;7.098;2023-12-14T13:55:56;101385.72;;;5.50;69.51
76285;BME280;71676;50.998;7.098;2023-12-14T13:58:23;101392.56;;;5.51;69.08
76285;BME280;71676;50.998;7.098;2023-12-14T14:00:50;101391.00;;;5.55;68.46
76285;BME280;71676;50.998;7.098;2023-12-14T14:03:18;101403.16;;;5.60;68.27
76285;BME280;71676;50.998;7.098;2023-12-14T14:05:45;101411.69;;;5.61;68.57
76285;BME280;71676;50.998;7.098;2023-12-14T14:08:11;101410.84;;;5.60;68.70
76285;BME280;71676;50.998;7.098;2023-12-14T14:10:38;101416.81;;;5.61;68.85
76285;BME280;71676;50.998;7.098;2023-12-14T14:13:05;101418.34;;;5.56;68.20
76285;BME280;71676;50.998;7.098;2023-12-14T14:15:32;101414.09;;;5.34;67.93
76285;BME280;71676;50.998;7.098;2023-12-14T14:17:59;101422.94;;;5.42;68.94
76285;BME280;71676;50.998;7.098;2023-12-14T14:20:27;101443.00;;;5.54;68.69
76285;BME280;71676;50.998;7.098;2023-12-14T14:22:55;101441.94;;;5.49;68.45
76285;BME280;71676;50.998;7.098;2023-12-14T14:25:24;101440.28;;;5.49;68.84
76285;BME280;71676;50.998;7.098;2023-12-14T14:27:51;101437.06;;;5.55;68.73
76285;BME280;71676;50.998;7.098;2023-12-14T14:30:18;101442.94;;;5.52;68.13
76285;BME280;71676;50.998;7.098;2023-12-14T14:32:45;101449.56;;;5.47;68.55
76285;BME280;71676;50.998;7.098;2023-12-14T14:35:12;101436.38;;;5.37;68.56
76285;BME280;71676;50.998;7.098;2023-12-14T14:37:40;101424.25;;;5.33;68.33
76285;BME280;71676;50.998;7.098;2023-12-14T14:40:11;101463.19;;;5.46;68.73
76285;BME280;71676;50.998;7.098;2023-12-14T14:42:39;101474.03;;;5.41;68.48
76285;BME280;71676;50.998;7.098;2023-12-14T14:45:06;101469.78;;;5.41;68.67
76285;BME280;71676;50.998;7.098;2023-12-14T14:47:33;101477.41;;;5.40;68.79
76285;BME280;71676;50.998;7.098;2023-12-14T14:50:00;101488.66;;;5.45;68.56
76285;BME280;71676;50.998;7.098;2023-12-14T14:52:29;101488.38;;;5.37;68.43
76285;BME280;71676;50.998;7.098;2023-12-14T14:54:57;101490.94;;;5.37;68.43
76285;BME280;71676;50.998;7.098;2023-12-14T14:57:24;101495.19;;;5.37;68.13
76285;BME280;71676;50.998;7.098;2023-12-14T14:59:51;101504.38;;;5.32;68.32
76285;BME280;71676;50.998;7.098;2023-12-14T15:02:18;101507.00;;;5.13;68.36
76285;BME280;71676;50.998;7.098;2023-12-14T15:04:45;101514.09;;;5.20;68.41
76285;BME280;71676;50.998;7.098;2023-12-14T15:07:12;101518.91;;;5.12;68.47
76285;BME280;71676;50.998;7.098;2023-12-14T15:09:39;101488.75;;;4.84;68.64
76285;BME280;71676;50.998;7.098;2023-12-14T15:12:07;101448.28;;;4.54;68.69
76285;BME280;71676;50.998;7.098;2023-12-14T15:14:34;101504.22;;;4.87;68.98
76285;BME280;71676;50.998;7.098;2023-12-14T15:17:02;101525.63;;;5.10;68.82
76285;BME280;71676;50.998;7.098;2023-12-14T15:19:29;101536.66;;;5.09;69.17
76285;BME280;71676;50.998;7.098;2023-12-14T15:21:56;101541.00;;;5.12;69.13